sensor_id;sensor_type;location;lat;lon;timestamp;temperature;humidity
26230;DHT22;13960;50.860;4.352;2022-12-29T00:01:39;11.90;99.90
26230;DHT22;13960;50.860;4.352;2022-12-29T00:04:04;11.90;99.90
26230;DHT22;13960;50.860;4.352;2022-12-29T00:06:30;11.90;99.90
26230;DHT22;13960;50.860;4.352;2022-12-29T00:08:56;11.90;99.90
26230;DHT22;13960;50.860;4.352;2022-12-29T00:11:22;11.90;99.90
26230;DHT22;13960;50.860;4.352;2022-12-29T00:13:49;11.90;99.90
26230;DHT22;13960;50.860;4.352;2022-12-29T00:16:33;11.90;99.90
26230;DHT22;13960;50.860;4.352;2022-12-29T00:18:59;12.00;99.90
26230;DHT22;13960;50.860;4.352;2022-12-29T00:21:25;12.00;99.90
26230;DHT22;13960;50.860;4.352;2022-12-29T00:24:17;12.00;99.90
26230;DHT22;13960;50.860;4.352;2022-12-29T00:26:56;12.10;99.90
26230;DHT22;13960;50.860;4.352;2022-12-29T00:29:41;12.10;99.90
26230;DHT22;13960;50.860;4.352;2022-12-29T00:32:25;12.10;99.90
26230;DHT22;13960;50.860;4.352;2022-12-29T00:35:09;12.10;99.90
26230;DHT22;13960;50.860;4.352;2022-12-29T00:37:42;12.20;99.90
26230;DHT22;13960;50.860;4.352;2022-12-29T00:40:27;12.20;99.90
26230;DHT22;13960;50.860;4.352;2022-12-29T00:43:11;12.20;99.90
26230;DHT22;13960;50.860;4.352;2022-12-29T00:45:55;12.20;99.90
26230;DHT22;13960;50.860;4.352;2022-12-29T00:48:21;12.30;99.90
26230;DHT22;13960;50.860;4.352;2022-12-29T00:51:06;12.30;99.90
26230;DHT22;13960;50.860;4.352;2022-12-29T00:53:31;12.30;99.90
26230;DHT22;13960;50.860;4.352;2022-12-29T00:55:57;12.30;99.90
26230;DHT22;13960;50.860;4.352;2022-12-29T00:58:23;12.30;99.90
26230;DHT22;13960;50.860;4.352;2022-12-29T01:00:48;12.20;99.90
26230;DHT22;13960;50.860;4.352;2022-12-29T01:03:14;12.30;99.90
26230;DHT22;13960;50.860;4.352;2022-12-29T01:05:39;12.30;99.90
26230;DHT22;13960;50.860;4.352;2022-12-29T01:08:05;12.30;99.90
26230;DHT22;13960;50.860;4.352;2022-12-29T01:10:30;12.20;99.90
26230;DHT22;13960;50.860;4.352;2022-12-29T01:12:56;12.20;99.90
26230;DHT22;13960;50.860;4.352;2022-12-29T01:15:21;12.20;99.90
26230;DHT22;13960;50.860;4.352;2022-12-29T01:17:47;12.10;99.90
26230;DHT22;13960;50.860;4.352;2022-12-29T01:20:12;12.10;99.90
26230;DHT22;13960;50.860;4.352;2022-12-29T01:22:38;12.00;99.90
26230;DHT22;13960;50.860;4.352;2022-12-29T01:25:04;11.90;99.90
26230;DHT22;13960;50.860;4.352;2022-12-29T01:27:30;11.80;99.90
26230;DHT22;13960;50.860;4.352;2022-12-29T01:29:56;11.70;99.90
26230;DHT22;13960;50.860;4.352;2022-12-29T01:32:21;11.60;99.90
26230;DHT22;13960;50.860;4.352;2022-12-29T01:34:47;11.50;99.90
26230;DHT22;13960;50.860;4.352;2022-12-29T01:37:12;11.40;99.90
26230;DHT22;13960;50.860;4.352;2022-12-29T01:39:38;11.40;99.90
26230;DHT22;13960;50.860;4.352;2022-12-29T01:42:03;11.50;99.90
26230;DHT22;13960;50.860;4.352;2022-12-29T01:47:25;11.30;99.90
26230;DHT22;13960;50.860;4.352;2022-12-29T01:49:52;11.30;99.90
26230;DHT22;13960;50.860;4.352;2022-12-29T01:52:18;11.30;99.90
26230;DHT22;13960;50.860;4.352;2022-12-29T01:54:45;11.30;99.90
26230;DHT22;13960;50.860;4.352;2022-12-29T01:57:15;11.40;99.90
26230;DHT22;13960;50.860;4.352;2022-12-29T01:59:42;11.30;99.90
26230;DHT22;13960;50.860;4.352;2022-12-29T02:02:08;11.30;99.90
26230;DHT22;13960;50.860;4.352;2022-12-29T02:04:34;11.30;99.90
26230;DHT22;13960;50.860;4.352;2022-12-29T02:07:04;11.40;99.90
26230;DHT22;13960;50.860;4.352;2022-12-29T02:09:30;11.30;99.90
26230;DHT22;13960;50.860;4.352;2022-12-29T02:11:56;11.20;99.90
26230;DHT22;13960;50.860;4.352;2022-12-29T02:14:21;11.20;99.90
26230;DHT22;13960;50.860;4.352;2022-12-29T02:24:27;10.50;99.90
26230;DHT22;13960;50.860;4.352;2022-12-29T02:30:29;10.30;99.90
26230;DHT22;13960;50.860;4.352;2022-12-29T02:35:05;10.40;99.90
26230;DHT22;13960;50.860;4.352;2022-12-29T02:37:39;10.30;99.90
26230;DHT22;13960;50.860;4.352;2022-12-29T02:42:36;10.40;99.90
26230;DHT22;13960;50.860;4.352;2022-12-29T02:52:42;10.50;99.90
26230;DHT22;13960;50.860;4.352;2022-12-29T02:55:10;10.50;99.90
26230;DHT22;13960;50.860;4.352;2022-12-29T02:57:35;10.50;99.90
26230;DHT22;13960;50.860;4.352;2022-12-29T03:00:03;10.50;99.90
26230;DHT22;13960;50.860;4.352;2022-12-29T03:07:39;10.40;99.90
26230;DHT22;13960;50.860;4.352;2022-12-29T03:13:00;10.00;99.90
26230;DHT22;13960;50.860;4.352;2022-12-29T03:21:15;10.20;99.90
26230;DHT22;13960;50.860;4.352;2022-12-29T03:23:43;10.30;99.90
26230;DHT22;13960;50.860;4.352;2022-12-29T03:26:12;10.30;99.90
26230;DHT22;13960;50.860;4.352;2022-12-29T03:28:41;10.40;99.90
26230;DHT22;13960;50.860;4.352;2022-12-29T03:31:08;10.30;99.90
26230;DHT22;13960;50.860;4.352;2022-12-29T03:33:34;10.40;99.90
26230;DHT22;13960;50.860;4.352;2022-12-29T03:36:03;10.50;99.90
26230;DHT22;13960;50.860;4.352;2022-12-29T03:38:37;10.50;99.90
26230;DHT22;13960;50.860;4.352;2022-12-29T03:41:06;10.50;99.90
26230;DHT22;13960;50.860;4.352;2022-12-29T03:43:32;10.50;99.90
26230;DHT22;13960;50.860;4.352;2022-12-29T03:45:58;10.60;99.90
26230;DHT22;13960;50.860;4.352;2022-12-29T03:48:24;10.60;99.90
26230;DHT22;13960;50.860;4.352;2022-12-29T03:50:49;10.60;99.90
26230;DHT22;13960;50.860;4.352;2022-12-29T03:53:15;10.60;99.90
26230;DHT22;13960;50.860;4.352;2022-12-29T03:55:41;10.60;99.90
26230;DHT22;13960;50.860;4.352;2022-12-29T03:58:06;10.60;99.90
26230;DHT22;13960;50.860;4.352;2022-12-29T04:00:32;10.60;99.90
26230;DHT22;13960;50.860;4.352;2022-12-29T04:02:57;10.60;99.90
26230;DHT22;13960;50.860;4.352;2022-12-29T04:05:23;10.60;99.90
26230;DHT22;13960;50.860;4.352;2022-12-29T04:07:48;10.60;99.90
26230;DHT22;13960;50.860;4.352;2022-12-29T04:10:14;10.60;99.90
26230;DHT22;13960;50.860;4.352;2022-12-29T04:12:39;10.50;99.90
26230;DHT22;13960;50.860;4.352;2022-12-29T04:15:07;10.60;99.90
26230;DHT22;13960;50.860;4.352;2022-12-29T04:17:33;10.50;99.90
26230;DHT22;13960;50.860;4.352;2022-12-29T04:19:58;10.60;99.90
26230;DHT22;13960;50.860;4.352;2022-12-29T04:22:44;10.60;99.90
26230;DHT22;13960;50.860;4.352;2022-12-29T04:25:09;10.60;99.90
26230;DHT22;13960;50.860;4.352;2022-12-29T04:27:35;10.50;99.90
26230;DHT22;13960;50.860;4.352;2022-12-29T04:30:00;10.50;99.90
26230;DHT22;13960;50.860;4.352;2022-12-29T04:32:26;10.50;99.90
26230;DHT22;13960;50.860;4.352;2022-12-29T04:34:51;10.50;99.90
26230;DHT22;13960;50.860;4.352;2022-12-29T04:37:17;10.50;99.90
26230;DHT22;13960;50.860;4.352;2022-12-29T04:39:42;10.50;99.90
26230;DHT22;13960;50.860;4.352;2022-12-29T04:42:08;10.50;99.90
26230;DHT22;13960;50.860;4.352;2022-12-29T04:44:33;10.50;99.90
26230;DHT22;13960;50.860;4.352;2022-12-29T04:46:59;10.50;99.90
26230;DHT22;13960;50.860;4.352;2022-12-29T04:49:24;10.50;99.90
26230;DHT22;13960;50.860;4.352;2022-12-29T04:51:50;10.50;99.90
26230;DHT22;13960;50.860;4.352;2022-12-29T04:54:15;10.50;99.90
26230;DHT22;13960;50.860;4.352;2022-12-29T04:56:41;10.50;99.90
26230;DHT22;13960;50.860;4.352;2022-12-29T04:59:06;10.50;99.90
26230;DHT22;13960;50.860;4.352;2022-12-29T05:01:31;10.50;99.90
26230;DHT22;13960;50.860;4.352;2022-12-29T05:03:57;10.60;99.90
26230;DHT22;13960;50.860;4.352;2022-12-29T05:06:22;10.60;99.90
26230;DHT22;13960;50.860;4.352;2022-12-29T05:08:48;10.60;99.90
26230;DHT22;13960;50.860;4.352;2022-12-29T05:11:13;10.70;99.90
26230;DHT22;13960;50.860;4.352;2022-12-29T05:13:39;10.70;99.90
26230;DHT22;13960;50.860;4.352;2022-12-29T05:16:04;10.70;99.90
26230;DHT22;13960;50.860;4.352;2022-12-29T05:18:30;10.70;99.90
26230;DHT22;13960;50.860;4.352;2022-12-29T05:20:55;10.70;99.90
26230;DHT22;13960;50.860;4.352;2022-12-29T05:23:21;10.70;99.90
26230;DHT22;13960;50.860;4.352;2022-12-29T05:25:46;10.80;99.90
26230;DHT22;13960;50.860;4.352;2022-12-29T05:28:12;10.80;99.90
26230;DHT22;13960;50.860;4.352;2022-12-29T05:30:38;10.90;99.90
26230;DHT22;13960;50.860;4.352;2022-12-29T05:33:04;10.80;99.90
26230;DHT22;13960;50.860;4.352;2022-12-29T05:35:32;10.90;99.90
26230;DHT22;13960;50.860;4.352;2022-12-29T05:37:57;10.90;99.90
26230;DHT22;13960;50.860;4.352;2022-12-29T05:40:23;10.80;99.90
26230;DHT22;13960;50.860;4.352;2022-12-29T05:42:48;10.80;99.90
26230;DHT22;13960;50.860;4.352;2022-12-29T05:45:14;10.90;99.90
26230;DHT22;13960;50.860;4.352;2022-12-29T05:47:39;10.90;99.90
26230;DHT22;13960;50.860;4.352;2022-12-29T05:50:05;10.90;99.90
26230;DHT22;13960;50.860;4.352;2022-12-29T05:52:31;10.90;99.90
26230;DHT22;13960;50.860;4.352;2022-12-29T05:54:56;10.90;99.90
26230;DHT22;13960;50.860;4.352;2022-12-29T05:57:21;10.90;99.90
26230;DHT22;13960;50.860;4.352;2022-12-29T05:59:47;10.90;99.90
26230;DHT22;13960;50.860;4.352;2022-12-29T06:02:12;10.80;99.90
26230;DHT22;13960;50.860;4.352;2022-12-29T06:04:38;10.80;99.90
26230;DHT22;13960;50.860;4.352;2022-12-29T06:07:03;10.90;99.90
26230;DHT22;13960;50.860;4.352;2022-12-29T06:09:29;10.80;99.90
26230;DHT22;13960;50.860;4.352;2022-12-29T06:11:54;10.80;99.90
26230;DHT22;13960;50.860;4.352;2022-12-29T06:14:20;10.70;99.90
26230;DHT22;13960;50.860;4.352;2022-12-29T06:16:45;10.70;99.90
26230;DHT22;13960;50.860;4.352;2022-12-29T06:19:11;10.80;99.90
26230;DHT22;13960;50.860;4.352;2022-12-29T06:21:36;10.80;99.90
26230;DHT22;13960;50.860;4.352;2022-12-29T06:24:03;10.70;99.90
26230;DHT22;13960;50.860;4.352;2022-12-29T06:26:29;10.70;99.90
26230;DHT22;13960;50.860;4.352;2022-12-29T06:28:55;10.70;99.90
26230;DHT22;13960;50.860;4.352;2022-12-29T06:31:20;10.70;99.90
26230;DHT22;13960;50.860;4.352;2022-12-29T06:33:46;10.70;99.90
26230;DHT22;13960;50.860;4.352;2022-12-29T06:36:11;10.80;99.90
26230;DHT22;13960;50.860;4.352;2022-12-29T06:38:37;10.80;99.90
26230;DHT22;13960;50.860;4.352;2022-12-29T06:41:02;10.80;99.90
26230;DHT22;13960;50.860;4.352;2022-12-29T06:43:28;10.80;99.90
26230;DHT22;13960;50.860;4.352;2022-12-29T06:45:53;10.80;99.90
26230;DHT22;13960;50.860;4.352;2022-12-29T06:48:19;10.80;99.90
26230;DHT22;13960;50.860;4.352;2022-12-29T06:50:45;10.80;99.90
26230;DHT22;13960;50.860;4.352;2022-12-29T06:53:10;10.90;99.90
26230;DHT22;13960;50.860;4.352;2022-12-29T06:55:36;10.90;99.90
26230;DHT22;13960;50.860;4.352;2022-12-29T06:58:02;10.90;99.90
26230;DHT22;13960;50.860;4.352;2022-12-29T07:00:27;10.90;99.90
26230;DHT22;13960;50.860;4.352;2022-12-29T07:02:54;10.80;99.90
26230;DHT22;13960;50.860;4.352;2022-12-29T07:05:19;10.80;99.90
26230;DHT22;13960;50.860;4.352;2022-12-29T07:07:45;10.80;99.90
26230;DHT22;13960;50.860;4.352;2022-12-29T07:10:11;10.90;99.90
26230;DHT22;13960;50.860;4.352;2022-12-29T07:12:36;10.80;99.90
26230;DHT22;13960;50.860;4.352;2022-12-29T07:15:02;10.90;99.90
26230;DHT22;13960;50.860;4.352;2022-12-29T07:17:27;10.90;99.90
26230;DHT22;13960;50.860;4.352;2022-12-29T07:19:53;10.90;99.90
26230;DHT22;13960;50.860;4.352;2022-12-29T07:22:18;10.90;99.90
26230;DHT22;13960;50.860;4.352;2022-12-29T07:24:44;11.00;99.90
26230;DHT22;13960;50.860;4.352;2022-12-29T07:27:09;10.90;99.90
26230;DHT22;13960;50.860;4.352;2022-12-29T07:29:36;10.90;99.90
26230;DHT22;13960;50.860;4.352;2022-12-29T07:32:02;10.80;99.90
26230;DHT22;13960;50.860;4.352;2022-12-29T07:34:27;10.90;99.90
26230;DHT22;13960;50.860;4.352;2022-12-29T07:36:53;10.90;99.90
26230;DHT22;13960;50.860;4.352;2022-12-29T07:39:18;10.90;99.90
26230;DHT22;13960;50.860;4.352;2022-12-29T07:41:44;10.90;99.90
26230;DHT22;13960;50.860;4.352;2022-12-29T07:44:09;10.80;99.90
26230;DHT22;13960;50.860;4.352;2022-12-29T07:46:35;10.80;99.90
26230;DHT22;13960;50.860;4.352;2022-12-29T07:49:00;10.90;99.90
26230;DHT22;13960;50.860;4.352;2022-12-29T07:51:26;10.90;99.90
26230;DHT22;13960;50.860;4.352;2022-12-29T07:53:51;10.90;99.90
26230;DHT22;13960;50.860;4.352;2022-12-29T07:56:17;10.90;99.90
26230;DHT22;13960;50.860;4.352;2022-12-29T07:58:42;10.90;99.90
26230;DHT22;13960;50.860;4.352;2022-12-29T08:01:07;10.90;99.90
26230;DHT22;13960;50.860;4.352;2022-12-29T08:03:33;10.90;99.90
26230;DHT22;13960;50.860;4.352;2022-12-29T08:05:58;10.90;99.90
26230;DHT22;13960;50.860;4.352;2022-12-29T08:08:24;10.90;99.90
26230;DHT22;13960;50.860;4.352;2022-12-29T08:10:50;10.90;99.90
26230;DHT22;13960;50.860;4.352;2022-12-29T08:13:15;10.90;99.90
26230;DHT22;13960;50.860;4.352;2022-12-29T08:15:41;11.00;99.90
26230;DHT22;13960;50.860;4.352;2022-12-29T08:18:06;10.90;99.90
26230;DHT22;13960;50.860;4.352;2022-12-29T08:20:32;10.90;99.90
26230;DHT22;13960;50.860;4.352;2022-12-29T08:22:57;10.80;99.90
26230;DHT22;13960;50.860;4.352;2022-12-29T08:25:23;10.90;99.90
26230;DHT22;13960;50.860;4.352;2022-12-29T08:27:48;10.80;99.90
26230;DHT22;13960;50.860;4.352;2022-12-29T08:30:14;10.90;99.90
26230;DHT22;13960;50.860;4.352;2022-12-29T08:32:39;10.80;99.90
26230;DHT22;13960;50.860;4.352;2022-12-29T08:35:05;10.80;99.90
26230;DHT22;13960;50.860;4.352;2022-12-29T08:37:31;10.80;99.90
26230;DHT22;13960;50.860;4.352;2022-12-29T08:39:57;10.80;99.90
26230;DHT22;13960;50.860;4.352;2022-12-29T08:42:23;10.80;99.90
26230;DHT22;13960;50.860;4.352;2022-12-29T08:44:54;10.80;99.90
26230;DHT22;13960;50.860;4.352;2022-12-29T08:47:19;10.90;99.90
26230;DHT22;13960;50.860;4.352;2022-12-29T08:49:45;10.80;99.90
26230;DHT22;13960;50.860;4.352;2022-12-29T08:52:11;10.90;99.90
26230;DHT22;13960;50.860;4.352;2022-12-29T08:54:37;10.90;99.90
26230;DHT22;13960;50.860;4.352;2022-12-29T08:57:02;10.90;99.90
26230;DHT22;13960;50.860;4.352;2022-12-29T08:59:28;10.90;99.90
26230;DHT22;13960;50.860;4.352;2022-12-29T09:01:53;10.90;99.90
26230;DHT22;13960;50.860;4.352;2022-12-29T09:04:19;10.90;99.90
26230;DHT22;13960;50.860;4.352;2022-12-29T09:06:44;10.80;99.90
26230;DHT22;13960;50.860;4.352;2022-12-29T09:09:10;10.80;99.90
26230;DHT22;13960;50.860;4.352;2022-12-29T09:11:36;10.70;99.90
26230;DHT22;13960;50.860;4.352;2022-12-29T09:14:01;10.70;99.90
26230;DHT22;13960;50.860;4.352;2022-12-29T09:16:27;10.70;99.90
26230;DHT22;13960;50.860;4.352;2022-12-29T09:18:52;10.70;99.90
26230;DHT22;13960;50.860;4.352;2022-12-29T09:21:18;10.60;99.90
26230;DHT22;13960;50.860;4.352;2022-12-29T09:23:43;10.60;99.90
26230;DHT22;13960;50.860;4.352;2022-12-29T09:26:09;10.60;99.90
26230;DHT22;13960;50.860;4.352;2022-12-29T09:28:35;10.60;99.90
26230;DHT22;13960;50.860;4.352;2022-12-29T09:31:00;10.50;99.90
26230;DHT22;13960;50.860;4.352;2022-12-29T09:33:26;10.40;99.90
26230;DHT22;13960;50.860;4.352;2022-12-29T09:35:53;10.20;99.90
26230;DHT22;13960;50.860;4.352;2022-12-29T09:38:19;10.30;99.90
26230;DHT22;13960;50.860;4.352;2022-12-29T09:40:46;10.20;99.90
26230;DHT22;13960;50.860;4.352;2022-12-29T09:48:33;10.30;99.90
26230;DHT22;13960;50.860;4.352;2022-12-29T09:51:00;10.30;99.90
26230;DHT22;13960;50.860;4.352;2022-12-29T09:55:57;10.40;99.90
26230;DHT22;13960;50.860;4.352;2022-12-29T10:01:02;10.60;99.90
26230;DHT22;13960;50.860;4.352;2022-12-29T10:03:36;10.70;99.90
26230;DHT22;13960;50.860;4.352;2022-12-29T10:08:39;10.70;99.90
26230;DHT22;13960;50.860;4.352;2022-12-29T10:11:13;10.60;99.90
26230;DHT22;13960;50.860;4.352;2022-12-29T10:16:30;10.70;99.90
26230;DHT22;13960;50.860;4.352;2022-12-29T10:24:15;10.70;99.90
26230;DHT22;13960;50.860;4.352;2022-12-29T10:26:42;10.80;99.90
26230;DHT22;13960;50.860;4.352;2022-12-29T10:29:18;10.80;99.90
26230;DHT22;13960;50.860;4.352;2022-12-29T10:31:48;10.70;99.90
26230;DHT22;13960;50.860;4.352;2022-12-29T10:34:17;10.70;99.90
26230;DHT22;13960;50.860;4.352;2022-12-29T10:36:44;10.70;99.90
26230;DHT22;13960;50.860;4.352;2022-12-29T10:39:23;10.70;99.90
26230;DHT22;13960;50.860;4.352;2022-12-29T10:41:57;10.80;99.90
26230;DHT22;13960;50.860;4.352;2022-12-29T10:44:25;10.80;99.90
26230;DHT22;13960;50.860;4.352;2022-12-29T10:46:55;10.90;99.90
26230;DHT22;13960;50.860;4.352;2022-12-29T10:49:22;10.80;99.90
26230;DHT22;13960;50.860;4.352;2022-12-29T10:51:50;10.90;99.90
26230;DHT22;13960;50.860;4.352;2022-12-29T10:56:43;11.00;99.90
26230;DHT22;13960;50.860;4.352;2022-12-29T10:59:16;11.00;99.90
26230;DHT22;13960;50.860;4.352;2022-12-29T11:01:53;11.00;99.90
26230;DHT22;13960;50.860;4.352;2022-12-29T11:06:47;11.00;99.90
26230;DHT22;13960;50.860;4.352;2022-12-29T11:09:15;11.10;99.90
26230;DHT22;13960;50.860;4.352;2022-12-29T11:11:41;11.10;99.90
26230;DHT22;13960;50.860;4.352;2022-12-29T11:14:14;11.10;99.90
26230;DHT22;13960;50.860;4.352;2022-12-29T11:16:43;11.10;99.90
26230;DHT22;13960;50.860;4.352;2022-12-29T11:19:20;11.20;99.90
26230;DHT22;13960;50.860;4.352;2022-12-29T11:21:46;11.20;99.90
26230;DHT22;13960;50.860;4.352;2022-12-29T11:24:27;11.30;99.90
26230;DHT22;13960;50.860;4.352;2022-12-29T11:27:35;11.40;99.90
26230;DHT22;13960;50.860;4.352;2022-12-29T11:29:42;11.30;99.90
26230;DHT22;13960;50.860;4.352;2022-12-29T11:32:12;11.20;99.90
26230;DHT22;13960;50.860;4.352;2022-12-29T11:34:38;11.10;99.90
26230;DHT22;13960;50.860;4.352;2022-12-29T11:37:10;11.00;99.90
26230;DHT22;13960;50.860;4.352;2022-12-29T11:39:37;10.80;99.90
26230;DHT22;13960;50.860;4.352;2022-12-29T11:42:05;10.80;99.90
26230;DHT22;13960;50.860;4.352;2022-12-29T11:44:36;10.70;99.90
26230;DHT22;13960;50.860;4.352;2022-12-29T11:47:02;10.60;99.90
26230;DHT22;13960;50.860;4.352;2022-12-29T11:49:28;10.50;99.90
26230;DHT22;13960;50.860;4.352;2022-12-29T11:51:53;10.60;99.90
26230;DHT22;13960;50.860;4.352;2022-12-29T11:54:23;10.50;99.90
26230;DHT22;13960;50.860;4.352;2022-12-29T11:56:49;10.50;99.90
26230;DHT22;13960;50.860;4.352;2022-12-29T11:59:24;10.50;99.90
26230;DHT22;13960;50.860;4.352;2022-12-29T12:02:00;10.60;99.90
26230;DHT22;13960;50.860;4.352;2022-12-29T12:04:33;10.60;99.90
26230;DHT22;13960;50.860;4.352;2022-12-29T12:07:01;10.60;99.90
26230;DHT22;13960;50.860;4.352;2022-12-29T12:09:38;10.60;99.90
26230;DHT22;13960;50.860;4.352;2022-12-29T12:12:08;10.60;99.90
26230;DHT22;13960;50.860;4.352;2022-12-29T12:14:38;10.50;99.90
26230;DHT22;13960;50.860;4.352;2022-12-29T12:17:12;10.60;99.90
26230;DHT22;13960;50.860;4.352;2022-12-29T12:19:41;10.60;99.90
26230;DHT22;13960;50.860;4.352;2022-12-29T12:22:28;10.50;99.90
26230;DHT22;13960;50.860;4.352;2022-12-29T12:24:56;10.40;99.90
26230;DHT22;13960;50.860;4.352;2022-12-29T12:27:26;10.30;99.90
26230;DHT22;13960;50.860;4.352;2022-12-29T12:30:04;10.30;99.90
26230;DHT22;13960;50.860;4.352;2022-12-29T12:32:42;10.40;99.90
26230;DHT22;13960;50.860;4.352;2022-12-29T12:35:13;10.40;99.90
26230;DHT22;13960;50.860;4.352;2022-12-29T12:37:45;10.40;99.90
26230;DHT22;13960;50.860;4.352;2022-12-29T12:42:46;10.60;99.90
26230;DHT22;13960;50.860;4.352;2022-12-29T12:47:56;10.60;99.90
26230;DHT22;13960;50.860;4.352;2022-12-29T12:50:31;10.70;99.90
26230;DHT22;13960;50.860;4.352;2022-12-29T13:00:33;10.70;99.90
26230;DHT22;13960;50.860;4.352;2022-12-29T13:05:55;10.60;99.90
26230;DHT22;13960;50.860;4.352;2022-12-29T13:13:51;10.50;99.90
26230;DHT22;13960;50.860;4.352;2022-12-29T13:16:36;10.50;99.90
26230;DHT22;13960;50.860;4.352;2022-12-29T13:29:33;10.60;99.90
26230;DHT22;13960;50.860;4.352;2022-12-29T13:36:55;10.50;99.90
26230;DHT22;13960;50.860;4.352;2022-12-29T13:39:39;10.50;99.90
26230;DHT22;13960;50.860;4.352;2022-12-29T13:42:05;10.30;99.90
26230;DHT22;13960;50.860;4.352;2022-12-29T13:44:33;10.30;99.90
26230;DHT22;13960;50.860;4.352;2022-12-29T13:47:00;10.40;99.90
26230;DHT22;13960;50.860;4.352;2022-12-29T13:49:26;10.30;99.90
26230;DHT22;13960;50.860;4.352;2022-12-29T13:54:57;10.40;99.90
26230;DHT22;13960;50.860;4.352;2022-12-29T14:00:16;10.30;99.90
26230;DHT22;13960;50.860;4.352;2022-12-29T14:07:46;10.40;99.90
26230;DHT22;13960;50.860;4.352;2022-12-29T14:10:28;10.40;99.90
26230;DHT22;13960;50.860;4.352;2022-12-29T14:13:14;10.40;99.90
26230;DHT22;13960;50.860;4.352;2022-12-29T14:15:41;10.40;99.90
26230;DHT22;13960;50.860;4.352;2022-12-29T14:18:17;10.40;99.90
26230;DHT22;13960;50.860;4.352;2022-12-29T14:21:00;10.40;99.90
26230;DHT22;13960;50.860;4.352;2022-12-29T14:23:40;10.40;99.90
26230;DHT22;13960;50.860;4.352;2022-12-29T14:28:35;10.50;99.90
26230;DHT22;13960;50.860;4.352;2022-12-29T14:31:02;10.50;99.90
26230;DHT22;13960;50.860;4.352;2022-12-29T14:33:29;10.50;99.90
26230;DHT22;13960;50.860;4.352;2022-12-29T14:35:56;10.50;99.90
26230;DHT22;13960;50.860;4.352;2022-12-29T14:38:23;10.40;99.90
26230;DHT22;13960;50.860;4.352;2022-12-29T14:40:49;10.40;99.90
26230;DHT22;13960;50.860;4.352;2022-12-29T14:43:19;10.20;99.90
26230;DHT22;13960;50.860;4.352;2022-12-29T14:45:51;9.50;99.90
26230;DHT22;13960;50.860;4.352;2022-12-29T14:48:33;9.30;99.90
26230;DHT22;13960;50.860;4.352;2022-12-29T14:50:59;8.90;99.90
26230;DHT22;13960;50.860;4.352;2022-12-29T14:56:09;8.70;99.90
26230;DHT22;13960;50.860;4.352;2022-12-29T14:58:38;8.70;99.90
26230;DHT22;13960;50.860;4.352;2022-12-29T15:01:34;8.70;99.90
26230;DHT22;13960;50.860;4.352;2022-12-29T15:04:06;8.60;99.90
26230;DHT22;13960;50.860;4.352;2022-12-29T15:06:38;8.60;99.90
26230;DHT22;13960;50.860;4.352;2022-12-29T15:14:00;8.30;99.90
26230;DHT22;13960;50.860;4.352;2022-12-29T15:16:33;8.30;99.90
26230;DHT22;13960;50.860;4.352;2022-12-29T15:19:01;8.30;99.90
26230;DHT22;13960;50.860;4.352;2022-12-29T15:21:35;8.30;99.90
26230;DHT22;13960;50.860;4.352;2022-12-29T15:24:02;8.30;99.90
26230;DHT22;13960;50.860;4.352;2022-12-29T15:26:40;8.20;99.90
26230;DHT22;13960;50.860;4.352;2022-12-29T15:31:50;8.20;99.90
26230;DHT22;13960;50.860;4.352;2022-12-29T15:34:16;8.20;99.90
26230;DHT22;13960;50.860;4.352;2022-12-29T15:36:46;8.30;99.90
26230;DHT22;13960;50.860;4.352;2022-12-29T15:39:23;8.30;99.90
26230;DHT22;13960;50.860;4.352;2022-12-29T15:42:16;8.40;99.90
26230;DHT22;13960;50.860;4.352;2022-12-29T15:44:45;8.40;99.90
26230;DHT22;13960;50.860;4.352;2022-12-29T15:47:15;8.40;99.90
26230;DHT22;13960;50.860;4.352;2022-12-29T15:49:42;8.50;99.90
26230;DHT22;13960;50.860;4.352;2022-12-29T15:52:08;8.50;99.90
26230;DHT22;13960;50.860;4.352;2022-12-29T15:54:34;8.50;99.90
26230;DHT22;13960;50.860;4.352;2022-12-29T15:57:00;8.60;99.90
26230;DHT22;13960;50.860;4.352;2022-12-29T15:59:27;8.50;99.90
26230;DHT22;13960;50.860;4.352;2022-12-29T16:01:56;8.50;99.90
26230;DHT22;13960;50.860;4.352;2022-12-29T16:04:22;8.50;99.90
26230;DHT22;13960;50.860;4.352;2022-12-29T16:06:58;8.50;99.90
26230;DHT22;13960;50.860;4.352;2022-12-29T16:09:34;8.40;99.90
26230;DHT22;13960;50.860;4.352;2022-12-29T16:12:04;8.40;99.90
26230;DHT22;13960;50.860;4.352;2022-12-29T16:14:37;8.40;99.90
26230;DHT22;13960;50.860;4.352;2022-12-29T16:17:05;8.40;99.90
26230;DHT22;13960;50.860;4.352;2022-12-29T16:19:38;8.40;99.90
26230;DHT22;13960;50.860;4.352;2022-12-29T16:22:19;8.30;99.90
26230;DHT22;13960;50.860;4.352;2022-12-29T16:24:46;8.30;99.90
26230;DHT22;13960;50.860;4.352;2022-12-29T16:32:48;8.40;99.90
26230;DHT22;13960;50.860;4.352;2022-12-29T16:35:21;8.40;99.90
26230;DHT22;13960;50.860;4.352;2022-12-29T16:37:48;8.40;99.90
26230;DHT22;13960;50.860;4.352;2022-12-29T16:47:42;8.40;99.90
26230;DHT22;13960;50.860;4.352;2022-12-29T16:50:11;8.40;99.90
26230;DHT22;13960;50.860;4.352;2022-12-29T16:52:38;8.40;99.90
26230;DHT22;13960;50.860;4.352;2022-12-29T16:55:03;8.50;99.90
26230;DHT22;13960;50.860;4.352;2022-12-29T16:57:35;8.40;99.90
26230;DHT22;13960;50.860;4.352;2022-12-29T17:00:05;8.40;99.90
26230;DHT22;13960;50.860;4.352;2022-12-29T17:02:31;8.50;99.90
26230;DHT22;13960;50.860;4.352;2022-12-29T17:04:58;8.50;99.90
26230;DHT22;13960;50.860;4.352;2022-12-29T17:07:24;8.50;99.90
26230;DHT22;13960;50.860;4.352;2022-12-29T17:09:50;8.50;99.90
26230;DHT22;13960;50.860;4.352;2022-12-29T17:12:27;8.60;99.90
26230;DHT22;13960;50.860;4.352;2022-12-29T17:19:52;8.60;99.90
26230;DHT22;13960;50.860;4.352;2022-12-29T17:22:23;8.50;99.90
26230;DHT22;13960;50.860;4.352;2022-12-29T17:24:52;8.50;99.90
26230;DHT22;13960;50.860;4.352;2022-12-29T17:27:20;8.50;99.90
26230;DHT22;13960;50.860;4.352;2022-12-29T17:29:47;8.50;99.90
26230;DHT22;13960;50.860;4.352;2022-12-29T17:32:13;8.50;99.90
26230;DHT22;13960;50.860;4.352;2022-12-29T17:34:39;8.50;99.90
26230;DHT22;13960;50.860;4.352;2022-12-29T17:39:42;8.60;99.90
26230;DHT22;13960;50.860;4.352;2022-12-29T17:42:08;8.60;99.90
26230;DHT22;13960;50.860;4.352;2022-12-29T17:44:34;8.60;99.90
26230;DHT22;13960;50.860;4.352;2022-12-29T17:47:00;8.60;99.90
26230;DHT22;13960;50.860;4.352;2022-12-29T17:49:26;8.60;99.90
26230;DHT22;13960;50.860;4.352;2022-12-29T17:51:52;8.70;99.90
26230;DHT22;13960;50.860;4.352;2022-12-29T17:54:19;8.70;99.90
26230;DHT22;13960;50.860;4.352;2022-12-29T17:56:45;8.60;99.90
26230;DHT22;13960;50.860;4.352;2022-12-29T17:59:11;8.60;99.90
26230;DHT22;13960;50.860;4.352;2022-12-29T18:01:38;8.70;99.90
26230;DHT22;13960;50.860;4.352;2022-12-29T18:04:04;8.60;99.90
26230;DHT22;13960;50.860;4.352;2022-12-29T18:06:29;8.60;99.90